createdAt,value
2023-05-13T00:00:56.077Z,100
2023-05-13T00:03:08.257Z,100
2023-05-13T00:05:24.186Z,100
2023-05-13T00:07:51.356Z,100
2023-05-13T00:10:05.768Z,100
2023-05-13T00:12:16.981Z,100
2023-05-13T00:14:29.075Z,100
2023-05-13T00:16:41.753Z,100
2023-05-13T00:18:59.859Z,100
2023-05-13T00:21:10.680Z,100
2023-05-13T00:23:24.978Z,100
2023-05-13T00:25:40.137Z,100
2023-05-13T00:27:53.837Z,100
2023-05-13T00:30:04.436Z,100
2023-05-13T00:32:16.240Z,100
2023-05-13T00:34:43.234Z,100
2023-05-13T00:36:55.096Z,100
2023-05-13T00:39:18.544Z,100
2023-05-13T00:41:32.856Z,100
2023-05-13T00:43:43.460Z,100
2023-05-13T00:45:54.465Z,100
2023-05-13T00:48:06.160Z,100
2023-05-13T00:50:28.158Z,100
2023-05-13T00:52:40.455Z,100
2023-05-13T00:55:10.159Z,100
2023-05-13T00:57:22.742Z,100
2023-05-13T00:59:34.938Z,100
2023-05-13T01:01:48.658Z,100
2023-05-13T01:04:15.198Z,100
2023-05-13T01:06:26.957Z,100
2023-05-13T01:08:39.068Z,100
2023-05-13T01:10:52.720Z,100
2023-05-13T01:13:23.998Z,100
2023-05-13T01:15:49.015Z,100
2023-05-13T01:18:00.441Z,100
2023-05-13T01:20:12.136Z,100
2023-05-13T01:22:26.734Z,100
2023-05-13T01:24:51.791Z,100
2023-05-13T01:27:07.013Z,100
2023-05-13T01:29:22.216Z,100
2023-05-13T01:31:35.806Z,100
2023-05-13T01:33:47.662Z,100
2023-05-13T01:36:01.350Z,100
2023-05-13T01:38:14.210Z,100
2023-05-13T01:40:44.610Z,100
2023-05-13T01:42:58.466Z,100
2023-05-13T01:45:15.309Z,100
2023-05-13T01:47:51.588Z,100
2023-05-13T01:50:05.134Z,100
2023-05-13T01:52:18.857Z,100
2023-05-13T01:54:30.872Z,100
2023-05-13T01:56:44.372Z,100
2023-05-13T01:58:55.834Z,100
2023-05-13T02:01:15.383Z,100
2023-05-13T02:03:31.528Z,100
2023-05-13T02:05:45.175Z,100
2023-05-13T02:07:57.852Z,100
2023-05-13T02:10:13.978Z,100
2023-05-13T02:12:27.996Z,100
2023-05-13T02:14:42.751Z,100
2023-05-13T02:16:53.737Z,100
2023-05-13T02:19:11.496Z,100
2023-05-13T02:21:25.472Z,100
2023-05-13T02:23:52.491Z,100
2023-05-13T02:26:03.853Z,100
2023-05-13T02:28:15.117Z,100
2023-05-13T02:30:30.579Z,100
2023-05-13T02:32:45.102Z,100
2023-05-13T02:34:57.419Z,100
2023-05-13T02:37:29.052Z,100
2023-05-13T02:39:40.452Z,100
2023-05-13T02:41:52.696Z,100
2023-05-13T02:44:05.856Z,100
2023-05-13T02:46:21.638Z,100
2023-05-13T02:48:38.159Z,100
2023-05-13T02:50:51.014Z,100
2023-05-13T02:53:07.259Z,100
2023-05-13T02:55:19.695Z,100
2023-05-13T02:57:33.074Z,100
2023-05-13T02:59:45.573Z,100
2023-05-13T03:02:03.126Z,100
2023-05-13T03:04:17.194Z,100
2023-05-13T03:06:43.278Z,100
2023-05-13T03:09:01.236Z,100
2023-05-13T03:11:20.064Z,100
2023-05-13T03:13:32.350Z,100
2023-05-13T03:15:47.782Z,100
2023-05-13T03:18:01.812Z,100
2023-05-13T03:20:13.848Z,100
2023-05-13T03:22:30.212Z,100
2023-05-13T03:24:45.502Z,100
2023-05-13T03:26:58.592Z,100
2023-05-13T03:29:13.417Z,100
2023-05-13T03:31:42.326Z,100
2023-05-13T03:34:00.419Z,100
2023-05-13T03:36:13.002Z,100
2023-05-13T03:38:28.512Z,100
2023-05-13T03:40:43.000Z,100
2023-05-13T03:42:55.556Z,100
2023-05-13T03:45:06.977Z,100
2023-05-13T03:47:19.320Z,100
2023-05-13T03:49:32.969Z,100
2023-05-13T03:51:46.091Z,100
2023-05-13T03:53:59.516Z,100
2023-05-13T03:56:14.895Z,100
2023-05-13T03:58:27.116Z,100
2023-05-13T04:00:42.658Z,100
2023-05-13T04:02:56.723Z,100
2023-05-13T04:05:08.035Z,100
2023-05-13T04:07:19.027Z,100
2023-05-13T04:09:32.521Z,100
2023-05-13T04:11:44.235Z,100
2023-05-13T04:13:54.937Z,100
2023-05-13T04:16:08.819Z,100
2023-05-13T04:18:21.673Z,100
2023-05-13T04:20:34.308Z,100
2023-05-13T04:22:49.458Z,100
2023-05-13T04:25:03.196Z,100
2023-05-13T04:27:15.717Z,100
2023-05-13T04:29:28.454Z,100
2023-05-13T04:31:43.207Z,100
2023-05-13T04:34:07.631Z,100
2023-05-13T04:36:26.419Z,100
2023-05-13T04:38:38.740Z,100
2023-05-13T04:40:51.255Z,100
2023-05-13T04:43:06.277Z,100
2023-05-13T04:45:18.521Z,100
2023-05-13T04:47:32.971Z,100
2023-05-13T04:49:46.394Z,100
2023-05-13T04:52:00.941Z,100
2023-05-13T04:54:15.455Z,100
2023-05-13T04:56:27.655Z,100
2023-05-13T04:58:42.976Z,100
2023-05-13T05:00:55.710Z,100
2023-05-13T05:03:10.616Z,100
2023-05-13T05:05:36.012Z,100
2023-05-13T05:07:47.853Z,100
2023-05-13T05:10:01.918Z,100
2023-05-13T05:12:17.492Z,100
2023-05-13T05:14:30.756Z,100
2023-05-13T05:16:50.576Z,100
2023-05-13T05:19:07.822Z,100
2023-05-13T05:21:23.556Z,100
2023-05-13T05:23:37.656Z,100
2023-05-13T05:26:00.715Z,100
2023-05-13T05:28:25.981Z,100
2023-05-13T05:30:36.902Z,100
2023-05-13T05:32:48.738Z,100
2023-05-13T05:35:01.364Z,100
2023-05-13T05:37:15.095Z,100
2023-05-13T05:39:32.296Z,100
2023-05-13T05:41:46.197Z,100
2023-05-13T05:43:59.479Z,100
2023-05-13T05:46:12.672Z,100
2023-05-13T05:48:32.068Z,100
2023-05-13T05:50:48.033Z,100
2023-05-13T05:52:59.837Z,100
2023-05-13T05:55:10.855Z,100
2023-05-13T05:57:22.498Z,100
2023-05-13T05:59:49.900Z,100
2023-05-13T06:02:03.304Z,100
2023-05-13T06:04:17.325Z,100
2023-05-13T06:06:33.427Z,100
2023-05-13T06:08:54.742Z,100
2023-05-13T06:11:07.594Z,100
2023-05-13T06:13:24.026Z,100
2023-05-13T06:15:36.368Z,100
2023-05-13T06:17:46.989Z,100
2023-05-13T06:19:59.781Z,100
2023-05-13T06:22:15.035Z,100
2023-05-13T06:24:36.416Z,100
2023-05-13T06:26:53.939Z,100
2023-05-13T06:29:07.359Z,100
2023-05-13T06:31:22.570Z,100
2023-05-13T06:33:41.648Z,100
2023-05-13T06:35:55.800Z,100
2023-05-13T06:38:08.476Z,100
2023-05-13T06:40:21.653Z,100
2023-05-13T06:42:41.816Z,100
2023-05-13T06:44:56.458Z,100
2023-05-13T06:47:09.333Z,100
2023-05-13T06:49:21.370Z,100
2023-05-13T06:51:35.317Z,100
2023-05-13T06:53:47.459Z,100
2023-05-13T06:56:00.814Z,100
2023-05-13T06:58:17.117Z,100
2023-05-13T07:00:30.617Z,99.14
2023-05-13T07:02:46.548Z,97.06
2023-05-13T07:04:59.371Z,96.39
2023-05-13T07:07:14.630Z,89.04
2023-05-13T07:09:30.151Z,86.6
2023-05-13T07:11:43.377Z,88.34
2023-05-13T07:13:56.218Z,86.7
2023-05-13T07:16:09.057Z,86.32
2023-05-13T07:18:26.247Z,86.18
2023-05-13T07:20:40.709Z,85.13
2023-05-13T07:25:47.973Z,73.91
2023-05-13T07:28:30.930Z,78.31
2023-05-13T07:30:42.914Z,75.6
2023-05-13T07:33:05.981Z,75.77
2023-05-13T07:35:19.755Z,72.72
2023-05-13T07:37:30.647Z,70.73
2023-05-13T07:39:44.059Z,69.47
2023-05-13T07:41:59.891Z,67.97
2023-05-13T07:44:11.494Z,71.73
2023-05-13T07:46:24.437Z,69.29
2023-05-13T07:48:41.195Z,67.35
2023-05-13T07:50:54.812Z,65.68
2023-05-13T07:53:05.952Z,65.83
2023-05-13T07:55:20.730Z,67.03
2023-05-13T07:57:34.664Z,64.91
2023-05-13T07:59:51.634Z,62.79
2023-05-13T08:02:07.135Z,60.32
2023-05-13T08:04:23.506Z,62.4
2023-05-13T08:06:39.620Z,60.52
2023-05-13T08:08:55.277Z,59.01
2023-05-13T08:11:14.446Z,65.13
2023-05-13T08:13:27.471Z,58.39
2023-05-13T08:15:42.739Z,59.01
2023-05-13T08:17:54.079Z,57.02
2023-05-13T08:20:09.597Z,58.98
2023-05-13T08:22:29.080Z,56.28
2023-05-13T08:24:41.017Z,56.1
2023-05-13T08:26:54.356Z,58.77
2023-05-13T08:29:06.628Z,56.63
2023-05-13T08:31:16.490Z,53.88
2023-05-13T08:33:29.893Z,53.27
2023-05-13T08:35:48.532Z,56.49
2023-05-13T08:37:58.808Z,51.78
2023-05-13T08:40:14.474Z,53.97
2023-05-13T08:42:26.909Z,51.73
2023-05-13T08:44:39.291Z,47.86
2023-05-13T08:46:55.587Z,50.36
2023-05-13T08:49:08.653Z,49.35
2023-05-13T08:51:23.555Z,50.04
2023-05-13T08:53:40.233Z,50.04
2023-05-13T08:55:53.090Z,50.95
2023-05-13T08:58:06.240Z,49.54
2023-05-13T09:00:20.035Z,50.78
2023-05-13T09:02:35.067Z,47.67
2023-05-13T09:04:53.525Z,48.46
2023-05-13T09:07:09.017Z,49.94
2023-05-13T09:09:19.857Z,46.61
2023-05-13T09:11:34.113Z,45.47
2023-05-13T09:13:49.529Z,44.49
2023-05-13T09:16:04.138Z,43.83
2023-05-13T09:18:19.714Z,47.39
2023-05-13T09:20:33.695Z,44.47
2023-05-13T09:22:48.180Z,45.58
2023-05-13T09:25:01.991Z,44.67
2023-05-13T09:27:13.828Z,45.81
2023-05-13T09:29:27.758Z,44.07
2023-05-13T09:31:45.687Z,43.44
2023-05-13T09:33:55.411Z,45.25
2023-05-13T09:36:09.833Z,43.36
2023-05-13T09:38:24.759Z,45.57
2023-05-13T09:40:38.410Z,46.59
2023-05-13T09:42:54.437Z,44.89
2023-05-13T09:45:10.212Z,48.11
2023-05-13T09:47:28.954Z,49.59
2023-05-13T09:49:42.933Z,46.29
2023-05-13T09:51:57.417Z,46.71
2023-05-13T09:54:13.019Z,44.84
2023-05-13T09:56:29.775Z,43.96
2023-05-13T09:58:46.354Z,44.31
2023-05-13T10:01:01.216Z,40.62
2023-05-13T10:03:14.593Z,40.16
2023-05-13T10:05:26.928Z,41.83
2023-05-13T10:07:38.772Z,43.43
2023-05-13T10:10:02.433Z,44.21
2023-05-13T10:12:17.595Z,41.87
2023-05-13T10:14:34.155Z,44.83
2023-05-13T10:16:51.000Z,45.26
2023-05-13T10:19:03.075Z,44.68
2023-05-13T10:21:14.577Z,43.95
2023-05-13T10:23:29.291Z,43.66
2023-05-13T10:25:39.994Z,42.92
2023-05-13T10:27:52.588Z,42.69
2023-05-13T10:30:11.735Z,42.57
2023-05-13T10:32:26.367Z,42.76
2023-05-13T10:34:38.209Z,42.36
2023-05-13T10:36:50.848Z,43.07
2023-05-13T10:39:08.053Z,43.99
2023-05-13T10:41:30.175Z,43.53
2023-05-13T10:43:52.991Z,42.81
2023-05-13T10:46:06.252Z,44.95
2023-05-13T10:48:26.515Z,44.87
2023-05-13T10:50:40.870Z,44.98
2023-05-13T10:52:55.170Z,43.15
2023-05-13T10:55:06.689Z,41.46
2023-05-13T10:57:24.629Z,41.88
2023-05-13T10:59:38.573Z,40.53
2023-05-13T11:01:53.906Z,42.24
2023-05-13T11:04:10.197Z,42.19
2023-05-13T11:06:22.689Z,43.73
2023-05-13T11:08:41.371Z,42.07
2023-05-13T11:10:53.885Z,41
2023-05-13T11:13:04.955Z,43.12
2023-05-13T11:15:17.048Z,40.97
2023-05-13T11:17:27.778Z,41.67
2023-05-13T11:19:47.726Z,41.85
2023-05-13T11:22:02.312Z,43.82
2023-05-13T11:24:18.570Z,43.42
2023-05-13T11:26:37.231Z,42.68
2023-05-13T11:28:52.256Z,45.24
2023-05-13T11:31:05.717Z,43.66
2023-05-13T11:33:20.617Z,43.03
2023-05-13T11:35:36.492Z,43.13
2023-05-13T11:37:53.394Z,40.73
2023-05-13T11:40:05.393Z,42.07
2023-05-13T11:42:20.533Z,42.66
2023-05-13T11:44:32.774Z,41.93
2023-05-13T11:46:47.915Z,44.85
2023-05-13T11:49:04.200Z,42.97
2023-05-13T11:51:29.073Z,44.99
2023-05-13T11:53:44.958Z,43.7
2023-05-13T11:56:00.356Z,42.89
2023-05-13T11:58:11.129Z,42.42
2023-05-13T12:00:23.128Z,42.01
2023-05-13T12:02:40.961Z,40.08
2023-05-13T12:04:55.844Z,40.41
2023-05-13T12:07:08.092Z,39.73
2023-05-13T12:09:20.646Z,38.96
2023-05-13T12:11:33.313Z,37.68
2023-05-13T12:13:44.940Z,41.73
2023-05-13T12:15:58.426Z,40.31
2023-05-13T12:18:10.995Z,38.35
2023-05-13T12:20:22.411Z,38.51
2023-05-13T12:22:33.470Z,36.92
2023-05-13T12:24:47.531Z,37.07
2023-05-13T12:27:02.977Z,38.55
2023-05-13T12:29:16.878Z,38.06
2023-05-13T12:31:31.039Z,40.91
2023-05-13T12:33:46.154Z,40.65
2023-05-13T12:36:01.230Z,41.62
2023-05-13T12:38:15.830Z,40.61
2023-05-13T12:40:28.797Z,41.39
2023-05-13T12:42:43.939Z,44.18
2023-05-13T12:44:56.576Z,40.96
2023-05-13T12:47:09.467Z,41.22
2023-05-13T12:49:25.797Z,37.67
2023-05-13T12:51:42.493Z,38.24
2023-05-13T12:54:15.148Z,39.17
2023-05-13T12:56:29.742Z,36.53
2023-05-13T12:58:41.908Z,36.06
2023-05-13T13:00:53.475Z,37.17
2023-05-13T13:03:05.925Z,37.93
2023-05-13T13:05:21.791Z,38.42
2023-05-13T13:07:43.953Z,41.27
2023-05-13T13:09:57.033Z,39.88
2023-05-13T13:12:11.237Z,39.68
2023-05-13T13:14:26.570Z,40.01
2023-05-13T13:16:41.057Z,40.78
2023-05-13T13:18:59.079Z,38.56
2023-05-13T13:21:19.392Z,37.73
2023-05-13T13:23:31.710Z,38.22
2023-05-13T13:25:49.510Z,38.58
2023-05-13T13:28:00.803Z,39.65
2023-05-13T13:30:15.843Z,38.76
2023-05-13T13:32:32.524Z,37.3
2023-05-13T13:34:43.931Z,37.02
2023-05-13T13:36:58.190Z,36.61
2023-05-13T13:39:20.538Z,37.58
2023-05-13T13:41:35.759Z,36.93
2023-05-13T13:43:48.952Z,36.3
2023-05-13T13:46:07.918Z,38.68
2023-05-13T13:48:22.954Z,37.68
2023-05-13T13:50:39.007Z,38.98
2023-05-13T13:52:57.859Z,39.18
2023-05-13T13:55:17.477Z,38.73
2023-05-13T13:57:34.572Z,39.6
2023-05-13T13:59:50.340Z,38.42
2023-05-13T14:02:09.185Z,39.64
2023-05-13T14:04:22.151Z,41.45
2023-05-13T14:06:36.058Z,42.18
2023-05-13T14:08:48.655Z,41.29
2023-05-13T14:11:00.089Z,42.59
2023-05-13T14:13:15.810Z,41.07
2023-05-13T14:15:27.130Z,41.33
2023-05-13T14:17:41.134Z,42.29
2023-05-13T14:19:54.514Z,40.04
2023-05-13T14:22:07.092Z,40.56
2023-05-13T14:24:21.516Z,41.71
2023-05-13T14:26:33.998Z,42.57
2023-05-13T14:28:46.262Z,44.28
2023-05-13T14:30:57.879Z,44.61
2023-05-13T14:33:14.718Z,45.65
2023-05-13T14:35:28.218Z,44.01
2023-05-13T14:37:40.519Z,44.51
2023-05-13T14:39:57.017Z,43.59
2023-05-13T14:42:11.385Z,42.91
2023-05-13T14:44:26.843Z,42.26
2023-05-13T14:46:44.602Z,42.99
2023-05-13T14:49:01.761Z,43.52
2023-05-13T14:51:18.416Z,43.98
2023-05-13T14:53:36.791Z,42.7
2023-05-13T14:55:54.452Z,43.36
2023-05-13T14:58:10.612Z,42.24
2023-05-13T15:00:23.695Z,42.43
2023-05-13T15:02:37.152Z,43.32
2023-05-13T15:04:50.370Z,43.21
2023-05-13T15:07:08.007Z,44.24
2023-05-13T15:09:23.152Z,43.93
2023-05-13T15:11:40.546Z,43.47
2023-05-13T15:13:59.329Z,42.23
2023-05-13T15:16:15.251Z,42.87
2023-05-13T15:18:31.726Z,42.48
2023-05-13T15:20:48.848Z,42.5
2023-05-13T15:23:02.032Z,42.67
2023-05-13T15:25:16.616Z,43.44
2023-05-13T15:27:30.808Z,42.54
2023-05-13T15:29:48.613Z,43.25
2023-05-13T15:32:07.416Z,43.86
2023-05-13T15:34:20.829Z,43.58
2023-05-13T15:36:36.316Z,45.15
2023-05-13T15:38:49.895Z,44.42
2023-05-13T15:41:04.539Z,45.46
2023-05-13T15:43:19.021Z,44.6
2023-05-13T15:45:31.856Z,44.86
2023-05-13T15:47:50.238Z,46.45
2023-05-13T15:50:10.152Z,45.52
2023-05-13T15:52:24.474Z,43.19
2023-05-13T15:54:45.750Z,43.44
2023-05-13T15:56:57.874Z,43.4
2023-05-13T15:59:17.484Z,43.73
2023-05-13T16:01:32.161Z,42.45
2023-05-13T16:03:46.118Z,41.08
2023-05-13T16:05:59.861Z,41.45
2023-05-13T16:08:14.972Z,43.08
2023-05-13T16:10:28.316Z,41.69
2023-05-13T16:12:42.690Z,40.95
2023-05-13T16:14:57.735Z,39.73
2023-05-13T16:17:11.311Z,40.02
2023-05-13T16:19:23.894Z,42.35
2023-05-13T16:21:35.733Z,42.25
2023-05-13T16:23:48.533Z,43.39
2023-05-13T16:26:03.677Z,44.56
2023-05-13T16:28:19.919Z,44.79
2023-05-13T16:30:33.958Z,45.52
2023-05-13T16:32:47.101Z,46.12
2023-05-13T16:35:00.972Z,43.38
2023-05-13T16:37:16.622Z,44.34
2023-05-13T16:39:28.915Z,45.76
2023-05-13T16:41:44.447Z,46.13
2023-05-13T16:43:56.906Z,45.48
2023-05-13T16:46:08.096Z,46.2
2023-05-13T16:48:20.463Z,45.53
2023-05-13T16:50:34.080Z,47.03
2023-05-13T16:52:48.269Z,45.04
2023-05-13T16:55:04.557Z,46.06
2023-05-13T16:57:17.915Z,46.07
2023-05-13T16:59:31.556Z,45.9
2023-05-13T17:01:44.212Z,45.21
2023-05-13T17:03:56.795Z,47.61
2023-05-13T17:06:15.251Z,47.01
2023-05-13T17:08:30.439Z,46.41
2023-05-13T17:10:47.370Z,47.83
2023-05-13T17:13:03.271Z,48.28
2023-05-13T17:15:20.516Z,49.04
2023-05-13T17:17:36.794Z,49.84
2023-05-13T17:19:52.951Z,49.44
2023-05-13T17:22:04.274Z,49.86
2023-05-13T17:24:19.633Z,51.81
2023-05-13T17:26:36.192Z,51.13
2023-05-13T17:28:51.000Z,52.02
2023-05-13T17:31:07.806Z,52.79
2023-05-13T17:33:26.492Z,50.71
2023-05-13T17:35:41.013Z,51.88
2023-05-13T17:37:52.592Z,50.17
2023-05-13T17:40:06.572Z,51.79
2023-05-13T17:42:20.294Z,53.66
2023-05-13T17:44:31.774Z,51.64
2023-05-13T17:46:45.315Z,51.7
2023-05-13T17:48:57.106Z,55.01
2023-05-13T17:51:08.262Z,57.32
2023-05-13T17:53:22.276Z,57.56
2023-05-13T17:55:33.139Z,61.61
2023-05-13T17:57:45.239Z,63.96
2023-05-13T18:00:01.453Z,64.88
2023-05-13T18:02:15.809Z,67.06
2023-05-13T18:04:27.490Z,67.11
2023-05-13T18:06:39.623Z,69.5
2023-05-13T18:08:50.994Z,71.07
2023-05-13T18:11:03.392Z,77.71
2023-05-13T18:13:18.719Z,81.4
2023-05-13T18:15:33.193Z,84.77
2023-05-13T18:17:47.750Z,86
2023-05-13T18:20:01.179Z,89.28
2023-05-13T18:22:12.094Z,95.03
2023-05-13T18:24:25.200Z,96.15
2023-05-13T18:26:36.791Z,100
2023-05-13T18:28:49.094Z,100
2023-05-13T18:31:00.686Z,100
2023-05-13T18:33:13.377Z,100
2023-05-13T18:35:26.531Z,100
2023-05-13T18:37:37.751Z,100
2023-05-13T18:39:51.555Z,100
2023-05-13T18:42:03.793Z,100
2023-05-13T18:44:16.716Z,100
2023-05-13T18:46:31.320Z,100
2023-05-13T18:48:44.593Z,100
2023-05-13T18:51:01.877Z,100
2023-05-13T18:53:16.338Z,100
2023-05-13T18:55:28.259Z,100
2023-05-13T18:57:41.856Z,100
2023-05-13T18:59:54.916Z,100
2023-05-13T19:02:10.259Z,100
2023-05-13T19:04:24.220Z,100
2023-05-13T19:06:38.291Z,100
2023-05-13T19:08:53.512Z,100
2023-05-13T19:11:06.872Z,100
2023-05-13T19:13:17.296Z,100
2023-05-13T19:15:34.147Z,100
2023-05-13T19:17:50.745Z,100
2023-05-13T19:20:04.352Z,100
2023-05-13T19:22:17.422Z,100
2023-05-13T19:24:29.490Z,100
2023-05-13T19:27:02.315Z,100
2023-05-13T19:29:15.975Z,100
2023-05-13T19:31:30.363Z,100
2023-05-13T19:33:49.712Z,100
2023-05-13T19:36:02.476Z,100
2023-05-13T19:38:17.471Z,100
2023-05-13T19:40:36.736Z,100
2023-05-13T19:42:49.092Z,100
2023-05-13T19:44:59.834Z,100
2023-05-13T19:47:12.136Z,100
2023-05-13T19:49:24.629Z,100
2023-05-13T19:51:40.874Z,100
2023-05-13T19:53:56.032Z,100
2023-05-13T19:56:10.417Z,100
2023-05-13T19:58:24.205Z,100
2023-05-13T20:00:37.020Z,100
2023-05-13T20:02:49.057Z,100
2023-05-13T20:05:00.269Z,100
2023-05-13T20:07:14.910Z,100
2023-05-13T20:09:27.287Z,100
2023-05-13T20:11:39.380Z,100
2023-05-13T20:13:50.649Z,100
2023-05-13T20:16:06.353Z,100
2023-05-13T20:18:18.687Z,100
2023-05-13T20:20:31.235Z,100
2023-05-13T20:22:43.933Z,100
2023-05-13T20:24:55.975Z,100
2023-05-13T20:27:08.310Z,100
2023-05-13T20:29:19.476Z,100
2023-05-13T20:31:30.296Z,100
2023-05-13T20:33:43.159Z,100
2023-05-13T20:35:59.595Z,100
2023-05-13T20:38:14.679Z,100
2023-05-13T20:40:28.818Z,100
2023-05-13T20:42:43.821Z,100
2023-05-13T20:44:56.101Z,100
2023-05-13T20:47:09.837Z,100
2023-05-13T20:49:22.157Z,100
2023-05-13T20:51:41.119Z,100
2023-05-13T20:53:54.079Z,100
2023-05-13T20:56:11.021Z,100
2023-05-13T20:58:22.397Z,100
2023-05-13T21:00:34.653Z,100
2023-05-13T21:02:51.224Z,100
2023-05-13T21:05:03.778Z,100
2023-05-13T21:07:15.139Z,100
2023-05-13T21:09:26.761Z,100
2023-05-13T21:11:39.480Z,100
2023-05-13T21:13:51.378Z,100
2023-05-13T21:16:04.521Z,100
2023-05-13T21:18:17.074Z,100
2023-05-13T21:20:29.145Z,100
2023-05-13T21:22:42.358Z,100
2023-05-13T21:24:53.034Z,100
2023-05-13T21:27:05.652Z,100
2023-05-13T21:29:21.512Z,100
2023-05-13T21:31:36.586Z,100
2023-05-13T21:33:47.732Z,100
2023-05-13T21:36:13.717Z,100
2023-05-13T21:38:24.597Z,100
2023-05-13T21:40:37.015Z,100
2023-05-13T21:42:50.577Z,100
2023-05-13T21:45:01.774Z,100
2023-05-13T21:47:14.393Z,100
2023-05-13T21:49:28.832Z,100
2023-05-13T21:51:41.873Z,100
2023-05-13T21:53:53.511Z,100
2023-05-13T21:56:06.626Z,100
2023-05-13T21:58:18.411Z,100
2023-05-13T22:00:31.495Z,100
2023-05-13T22:02:44.234Z,100
2023-05-13T22:04:55.098Z,100
2023-05-13T22:07:07.517Z,100
2023-05-13T22:09:22.600Z,100
2023-05-13T22:11:36.101Z,100
2023-05-13T22:13:49.713Z,100
2023-05-13T22:16:01.277Z,100
2023-05-13T22:18:14.476Z,100
2023-05-13T22:20:27.373Z,100
2023-05-13T22:22:37.552Z,100
2023-05-13T22:24:50.590Z,100
2023-05-13T22:27:02.746Z,100
2023-05-13T22:29:15.480Z,100
2023-05-13T22:31:29.433Z,100
2023-05-13T22:33:39.955Z,100
2023-05-13T22:35:51.575Z,100
2023-05-13T22:38:01.856Z,100
2023-05-13T22:40:14.023Z,100
2023-05-13T22:42:32.958Z,100
2023-05-13T22:44:44.121Z,100
2023-05-13T22:46:56.668Z,100
2023-05-13T22:49:09.078Z,100
2023-05-13T22:51:20.456Z,100
2023-05-13T22:53:31.355Z,100
2023-05-13T22:55:42.586Z,100
2023-05-13T22:57:54.328Z,100
2023-05-13T23:00:06.363Z,100
2023-05-13T23:02:17.842Z,100
2023-05-13T23:04:30.376Z,100
2023-05-13T23:06:45.095Z,100
2023-05-13T23:08:57.454Z,100
2023-05-13T23:11:13.016Z,100
2023-05-13T23:13:26.282Z,100
2023-05-13T23:15:37.770Z,100
2023-05-13T23:17:49.928Z,100
2023-05-13T23:20:02.577Z,100
2023-05-13T23:22:14.468Z,100
2023-05-13T23:24:26.994Z,100
2023-05-13T23:26:40.133Z,100
2023-05-13T23:28:54.592Z,100
2023-05-13T23:31:08.198Z,100
2023-05-13T23:33:20.452Z,100
2023-05-13T23:35:32.655Z,100
2023-05-13T23:37:45.912Z,100
2023-05-13T23:40:00.039Z,100
2023-05-13T23:42:11.655Z,100
2023-05-13T23:44:23.578Z,100
2023-05-13T23:46:34.615Z,100
2023-05-13T23:48:46.509Z,100
2023-05-13T23:50:58.792Z,100
2023-05-13T23:53:11.413Z,100
2023-05-13T23:55:24.971Z,100
2023-05-13T23:57:36.663Z,100
2023-05-13T23:59:47.415Z,100
